sensor_id;sensor_type;location;lat;lon;timestamp;P1;durP1;ratioP1;P2;durP2;ratioP2
23684;SDS011;12020;51.384;6.908;2023-06-24T00:04:18;7.03;;;6.33;;
23684;SDS011;12020;51.384;6.908;2023-06-24T00:11:53;7.07;;;6.37;;
23684;SDS011;12020;51.384;6.908;2023-06-24T00:14:22;9.43;;;7.27;;
23684;SDS011;12020;51.384;6.908;2023-06-24T00:16:52;8.23;;;6.50;;
23684;SDS011;12020;51.384;6.908;2023-06-24T00:19:26;10.83;;;7.30;;
23684;SDS011;12020;51.384;6.908;2023-06-24T00:21:54;8.27;;;6.33;;
23684;SDS011;12020;51.384;6.908;2023-06-24T00:24:20;8.80;;;6.87;;
23684;SDS011;12020;51.384;6.908;2023-06-24T00:29:23;9.20;;;7.13;;
23684;SDS011;12020;51.384;6.908;2023-06-24T00:31:51;8.00;;;6.50;;
23684;SDS011;12020;51.384;6.908;2023-06-24T00:34:17;7.33;;;6.63;;
23684;SDS011;12020;51.384;6.908;2023-06-24T00:39:16;9.73;;;6.67;;
23684;SDS011;12020;51.384;6.908;2023-06-24T00:41:48;7.67;;;6.87;;
23684;SDS011;12020;51.384;6.908;2023-06-24T00:44:18;10.27;;;7.00;;
23684;SDS011;12020;51.384;6.908;2023-06-24T00:46:47;7.47;;;6.77;;
23684;SDS011;12020;51.384;6.908;2023-06-24T00:49:23;10.33;;;6.77;;
23684;SDS011;12020;51.384;6.908;2023-06-24T00:51:56;7.00;;;6.37;;
23684;SDS011;12020;51.384;6.908;2023-06-24T00:54:22;9.00;;;6.40;;
23684;SDS011;12020;51.384;6.908;2023-06-24T00:59:32;7.13;;;6.20;;
23684;SDS011;12020;51.384;6.908;2023-06-24T01:01:58;7.27;;;6.23;;
23684;SDS011;12020;51.384;6.908;2023-06-24T01:04:38;7.67;;;6.43;;
23684;SDS011;12020;51.384;6.908;2023-06-24T01:07:10;7.87;;;7.17;;
23684;SDS011;12020;51.384;6.908;2023-06-24T01:09:38;7.37;;;6.67;;
23684;SDS011;12020;51.384;6.908;2023-06-24T01:14:35;7.53;;;6.40;;
23684;SDS011;12020;51.384;6.908;2023-06-24T01:17:09;7.70;;;6.90;;
23684;SDS011;12020;51.384;6.908;2023-06-24T01:34:37;13.07;;;7.83;;
23684;SDS011;12020;51.384;6.908;2023-06-24T01:39:48;8.57;;;7.33;;
23684;SDS011;12020;51.384;6.908;2023-06-24T01:42:19;9.47;;;7.43;;
23684;SDS011;12020;51.384;6.908;2023-06-24T01:44:51;8.03;;;6.40;;
23684;SDS011;12020;51.384;6.908;2023-06-24T01:47:25;7.63;;;6.83;;
23684;SDS011;12020;51.384;6.908;2023-06-24T01:52:26;8.23;;;7.17;;
23684;SDS011;12020;51.384;6.908;2023-06-24T01:54:59;10.27;;;7.50;;
23684;SDS011;12020;51.384;6.908;2023-06-24T01:59:56;10.97;;;6.87;;
23684;SDS011;12020;51.384;6.908;2023-06-24T02:04:55;7.83;;;6.57;;
23684;SDS011;12020;51.384;6.908;2023-06-24T02:07:28;7.53;;;6.70;;
23684;SDS011;12020;51.384;6.908;2023-06-24T02:09:56;8.17;;;6.67;;
23684;SDS011;12020;51.384;6.908;2023-06-24T02:12:24;10.70;;;7.20;;
23684;SDS011;12020;51.384;6.908;2023-06-24T02:14:56;11.10;;;7.03;;
23684;SDS011;12020;51.384;6.908;2023-06-24T02:17:29;7.70;;;6.37;;
23684;SDS011;12020;51.384;6.908;2023-06-24T02:19:56;12.80;;;6.47;;
23684;SDS011;12020;51.384;6.908;2023-06-24T02:22:25;8.83;;;6.83;;
23684;SDS011;12020;51.384;6.908;2023-06-24T02:24:53;9.33;;;6.77;;
23684;SDS011;12020;51.384;6.908;2023-06-24T02:27:35;8.87;;;7.17;;
23684;SDS011;12020;51.384;6.908;2023-06-24T02:30:02;8.40;;;6.40;;
23684;SDS011;12020;51.384;6.908;2023-06-24T02:32:30;9.53;;;7.23;;
23684;SDS011;12020;51.384;6.908;2023-06-24T02:35:14;8.37;;;7.13;;
23684;SDS011;12020;51.384;6.908;2023-06-24T02:37:45;8.47;;;6.57;;
23684;SDS011;12020;51.384;6.908;2023-06-24T02:40:20;11.50;;;6.70;;
23684;SDS011;12020;51.384;6.908;2023-06-24T02:45:17;7.67;;;6.77;;
23684;SDS011;12020;51.384;6.908;2023-06-24T02:47:49;7.60;;;6.50;;
23684;SDS011;12020;51.384;6.908;2023-06-24T02:50:19;7.67;;;6.70;;
23684;SDS011;12020;51.384;6.908;2023-06-24T02:52:49;8.37;;;6.37;;
23684;SDS011;12020;51.384;6.908;2023-06-24T02:55:16;8.17;;;6.10;;
23684;SDS011;12020;51.384;6.908;2023-06-24T03:00:26;9.60;;;6.77;;
23684;SDS011;12020;51.384;6.908;2023-06-24T03:02:57;7.37;;;6.07;;
23684;SDS011;12020;51.384;6.908;2023-06-24T03:05:26;9.23;;;6.20;;
23684;SDS011;12020;51.384;6.908;2023-06-24T03:07:54;8.90;;;7.00;;
23684;SDS011;12020;51.384;6.908;2023-06-24T03:12:56;6.97;;;6.27;;
23684;SDS011;12020;51.384;6.908;2023-06-24T03:15:26;7.40;;;6.00;;
23684;SDS011;12020;51.384;6.908;2023-06-24T03:17:54;6.50;;;5.87;;
23684;SDS011;12020;51.384;6.908;2023-06-24T03:20:20;7.47;;;6.20;;
23684;SDS011;12020;51.384;6.908;2023-06-24T03:22:46;8.07;;;6.30;;
23684;SDS011;12020;51.384;6.908;2023-06-24T03:25:20;7.70;;;6.67;;
23684;SDS011;12020;51.384;6.908;2023-06-24T03:27:46;9.10;;;6.40;;
23684;SDS011;12020;51.384;6.908;2023-06-24T03:30:14;7.87;;;6.80;;
23684;SDS011;12020;51.384;6.908;2023-06-24T03:32:40;8.07;;;7.27;;
23684;SDS011;12020;51.384;6.908;2023-06-24T03:35:12;7.27;;;6.53;;
23684;SDS011;12020;51.384;6.908;2023-06-24T03:37:40;10.07;;;7.17;;
23684;SDS011;12020;51.384;6.908;2023-06-24T03:40:18;10.73;;;7.27;;
23684;SDS011;12020;51.384;6.908;2023-06-24T03:42:46;10.10;;;6.80;;
23684;SDS011;12020;51.384;6.908;2023-06-24T03:45:17;13.93;;;7.13;;
23684;SDS011;12020;51.384;6.908;2023-06-24T03:52:45;8.27;;;6.40;;
23684;SDS011;12020;51.384;6.908;2023-06-24T03:55:13;9.93;;;7.20;;
23684;SDS011;12020;51.384;6.908;2023-06-24T03:57:40;8.93;;;6.87;;
23684;SDS011;12020;51.384;6.908;2023-06-24T04:00:08;9.60;;;6.87;;
23684;SDS011;12020;51.384;6.908;2023-06-24T04:02:55;10.40;;;7.03;;
23684;SDS011;12020;51.384;6.908;2023-06-24T04:05:32;9.33;;;6.90;;
23684;SDS011;12020;51.384;6.908;2023-06-24T04:08:01;8.10;;;6.73;;
23684;SDS011;12020;51.384;6.908;2023-06-24T04:10:42;9.07;;;7.17;;
23684;SDS011;12020;51.384;6.908;2023-06-24T04:13:08;12.27;;;7.27;;
23684;SDS011;12020;51.384;6.908;2023-06-24T04:15:35;10.27;;;6.83;;
23684;SDS011;12020;51.384;6.908;2023-06-24T04:21:00;9.97;;;7.03;;
23684;SDS011;12020;51.384;6.908;2023-06-24T04:23:26;7.97;;;7.13;;
23684;SDS011;12020;51.384;6.908;2023-06-24T04:25:52;11.87;;;8.00;;
23684;SDS011;12020;51.384;6.908;2023-06-24T04:28:19;10.20;;;7.20;;
23684;SDS011;12020;51.384;6.908;2023-06-24T04:30:56;9.77;;;6.97;;
23684;SDS011;12020;51.384;6.908;2023-06-24T04:33:23;8.77;;;7.77;;
23684;SDS011;12020;51.384;6.908;2023-06-24T04:35:51;12.47;;;7.97;;
23684;SDS011;12020;51.384;6.908;2023-06-24T04:38:21;12.33;;;7.77;;
23684;SDS011;12020;51.384;6.908;2023-06-24T04:40:48;10.37;;;7.63;;
23684;SDS011;12020;51.384;6.908;2023-06-24T04:43:15;9.23;;;7.67;;
23684;SDS011;12020;51.384;6.908;2023-06-24T04:45:42;10.63;;;8.20;;
23684;SDS011;12020;51.384;6.908;2023-06-24T04:48:12;11.17;;;8.03;;
23684;SDS011;12020;51.384;6.908;2023-06-24T04:50:38;8.50;;;7.67;;
23684;SDS011;12020;51.384;6.908;2023-06-24T04:53:10;10.60;;;8.63;;
23684;SDS011;12020;51.384;6.908;2023-06-24T04:55:44;10.90;;;9.63;;
23684;SDS011;12020;51.384;6.908;2023-06-24T04:58:10;11.57;;;9.47;;
23684;SDS011;12020;51.384;6.908;2023-06-24T05:00:39;10.43;;;9.30;;
23684;SDS011;12020;51.384;6.908;2023-06-24T05:03:05;13.27;;;9.83;;
23684;SDS011;12020;51.384;6.908;2023-06-24T05:08:00;11.30;;;10.10;;
23684;SDS011;12020;51.384;6.908;2023-06-24T05:10:26;10.77;;;9.20;;
23684;SDS011;12020;51.384;6.908;2023-06-24T05:12:53;12.60;;;9.97;;
23684;SDS011;12020;51.384;6.908;2023-06-24T05:17:51;11.57;;;9.93;;
23684;SDS011;12020;51.384;6.908;2023-06-24T05:20:16;12.30;;;9.87;;
23684;SDS011;12020;51.384;6.908;2023-06-24T05:22:43;8.77;;;7.43;;
23684;SDS011;12020;51.384;6.908;2023-06-24T05:25:14;10.43;;;9.43;;
23684;SDS011;12020;51.384;6.908;2023-06-24T05:27:41;9.57;;;8.67;;
23684;SDS011;12020;51.384;6.908;2023-06-24T05:32:45;10.43;;;8.77;;
23684;SDS011;12020;51.384;6.908;2023-06-24T05:35:11;8.77;;;7.97;;
23684;SDS011;12020;51.384;6.908;2023-06-24T20:25:48;3.80;;;2.80;;
23684;SDS011;12020;51.384;6.908;2023-06-24T20:31:18;3.60;;;3.10;;
23684;SDS011;12020;51.384;6.908;2023-06-24T20:33:44;3.30;;;2.90;;
23684;SDS011;12020;51.384;6.908;2023-06-24T20:36:18;5.17;;;3.20;;
23684;SDS011;12020;51.384;6.908;2023-06-24T20:38:45;4.40;;;3.67;;
23684;SDS011;12020;51.384;6.908;2023-06-24T20:41:23;4.27;;;3.37;;
23684;SDS011;12020;51.384;6.908;2023-06-24T20:46:50;5.28;;;3.70;;
23684;SDS011;12020;51.384;6.908;2023-06-24T20:49:16;4.17;;;3.43;;
23684;SDS011;12020;51.384;6.908;2023-06-24T20:51:41;4.77;;;3.13;;
23684;SDS011;12020;51.384;6.908;2023-06-24T20:54:15;3.63;;;3.13;;
23684;SDS011;12020;51.384;6.908;2023-06-24T20:56:40;4.07;;;3.53;;
23684;SDS011;12020;51.384;6.908;2023-06-24T20:59:09;3.40;;;3.10;;
23684;SDS011;12020;51.384;6.908;2023-06-24T21:01:35;4.93;;;3.10;;
23684;SDS011;12020;51.384;6.908;2023-06-24T21:04:03;5.55;;;3.72;;
23684;SDS011;12020;51.384;6.908;2023-06-24T21:09:00;4.60;;;4.20;;
23684;SDS011;12020;51.384;6.908;2023-06-24T21:11:27;4.75;;;4.18;;
23684;SDS011;12020;51.384;6.908;2023-06-24T21:16:36;4.60;;;3.78;;
23684;SDS011;12020;51.384;6.908;2023-06-24T21:19:06;4.40;;;4.00;;
23684;SDS011;12020;51.384;6.908;2023-06-24T21:21:32;4.50;;;4.10;;
23684;SDS011;12020;51.384;6.908;2023-06-24T21:24:01;4.38;;;3.80;;
23684;SDS011;12020;51.384;6.908;2023-06-24T21:26:29;4.40;;;4.00;;
23684;SDS011;12020;51.384;6.908;2023-06-24T21:29:03;4.60;;;3.95;;
23684;SDS011;12020;51.384;6.908;2023-06-24T21:31:30;4.07;;;3.65;;
23684;SDS011;12020;51.384;6.908;2023-06-24T21:36:26;4.57;;;4.13;;
23684;SDS011;12020;51.384;6.908;2023-06-24T21:38:51;4.80;;;4.10;;
23684;SDS011;12020;51.384;6.908;2023-06-24T21:41:34;4.45;;;4.05;;
23684;SDS011;12020;51.384;6.908;2023-06-24T21:44:00;4.80;;;4.30;;
23684;SDS011;12020;51.384;6.908;2023-06-24T21:46:26;4.83;;;4.10;;
23684;SDS011;12020;51.384;6.908;2023-06-24T21:48:55;4.67;;;4.17;;
23684;SDS011;12020;51.384;6.908;2023-06-24T21:51:21;4.43;;;4.03;;
23684;SDS011;12020;51.384;6.908;2023-06-24T21:53:48;5.23;;;3.70;;
23684;SDS011;12020;51.384;6.908;2023-06-24T21:56:19;4.90;;;4.10;;
23684;SDS011;12020;51.384;6.908;2023-06-24T22:03:47;5.63;;;4.78;;
23684;SDS011;12020;51.384;6.908;2023-06-24T22:06:14;5.03;;;4.53;;
23684;SDS011;12020;51.384;6.908;2023-06-24T22:08:41;6.43;;;4.97;;
23684;SDS011;12020;51.384;6.908;2023-06-24T22:11:21;5.10;;;4.60;;
23684;SDS011;12020;51.384;6.908;2023-06-24T22:13:56;4.72;;;4.18;;
23684;SDS011;12020;51.384;6.908;2023-06-24T22:16:22;5.55;;;4.57;;
23684;SDS011;12020;51.384;6.908;2023-06-24T22:18:57;5.15;;;4.50;;
23684;SDS011;12020;51.384;6.908;2023-06-24T22:21:25;5.90;;;4.70;;
23684;SDS011;12020;51.384;6.908;2023-06-24T22:26:41;5.00;;;4.60;;
23684;SDS011;12020;51.384;6.908;2023-06-24T22:29:16;5.20;;;4.70;;
23684;SDS011;12020;51.384;6.908;2023-06-24T22:31:48;6.28;;;4.80;;
23684;SDS011;12020;51.384;6.908;2023-06-24T22:34:16;5.07;;;4.67;;
23684;SDS011;12020;51.384;6.908;2023-06-24T22:36:42;5.18;;;4.68;;
23684;SDS011;12020;51.384;6.908;2023-06-24T22:44:41;5.00;;;4.60;;
23684;SDS011;12020;51.384;6.908;2023-06-24T22:47:06;5.65;;;5.07;;
23684;SDS011;12020;51.384;6.908;2023-06-24T22:49:33;5.65;;;4.28;;
23684;SDS011;12020;51.384;6.908;2023-06-24T22:52:18;6.35;;;4.60;;
23684;SDS011;12020;51.384;6.908;2023-06-24T22:54:50;5.57;;;5.03;;
23684;SDS011;12020;51.384;6.908;2023-06-24T23:00:04;5.35;;;4.85;;
23684;SDS011;12020;51.384;6.908;2023-06-24T23:02:33;5.82;;;4.40;;
23684;SDS011;12020;51.384;6.908;2023-06-24T23:10:23;5.13;;;4.63;;
23684;SDS011;12020;51.384;6.908;2023-06-24T23:12:56;5.35;;;4.78;;
23684;SDS011;12020;51.384;6.908;2023-06-24T23:15:22;5.25;;;4.75;;
23684;SDS011;12020;51.384;6.908;2023-06-24T23:17:55;5.00;;;4.60;;
23684;SDS011;12020;51.384;6.908;2023-06-24T23:20:26;5.45;;;4.90;;
23684;SDS011;12020;51.384;6.908;2023-06-24T23:27:54;5.27;;;4.73;;
23684;SDS011;12020;51.384;6.908;2023-06-24T23:30:29;4.77;;;4.03;;
23684;SDS011;12020;51.384;6.908;2023-06-24T23:33:02;4.60;;;4.20;;
23684;SDS011;12020;51.384;6.908;2023-06-24T23:35:32;4.90;;;4.33;;
23684;SDS011;12020;51.384;6.908;2023-06-24T23:40:28;5.80;;;3.90;;
23684;SDS011;12020;51.384;6.908;2023-06-24T23:43:03;5.73;;;4.70;;
23684;SDS011;12020;51.384;6.908;2023-06-24T23:45:35;5.10;;;4.60;;
23684;SDS011;12020;51.384;6.908;2023-06-24T23:48:11;6.37;;;4.57;;
23684;SDS011;12020;51.384;6.908;2023-06-24T23:50:38;6.37;;;4.70;;
23684;SDS011;12020;51.384;6.908;2023-06-24T23:53:04;7.13;;;4.50;;
23684;SDS011;12020;51.384;6.908;2023-06-24T23:58:10;4.93;;;4.43;;
